Cavern City Air Terminal
KCNM : now visible

Airfield :











YOU CAN JOIN US ON...

 
LOGIN :

Register | Disclaimer

   EN    FR    IT 

 









Legend :    VFR   Marginal VFR   IFR   Intensive IFR   Very Intensive IFR
Visi :
Ceiling :
>= 8 km
>= 3000ft
5 to 8 km
1000 to 3000 ft
1500m to 5 km
500 to 1000 ft
800 to 1500m
200 to 500 ft
< 800m
< 200 ft
Symbols :   Thunderstorms  Fog  Heavy snow  Heavy precipitations  Wind > 20 kt






- Airport Elevation : 3295 ft
- IATA code : CNM


KCNM - Cavern City Air Terminal

CURRENT METAR :
  • 161153Z AUTO 19006KT 10SM CLR 07/M03 A3040 RMK AO2 SLP269 T00671028 10083 20044 53006

EXPIRED METARs :
  • 161053Z AUTO 17005KT 10SM CLR 07/M03 A3039 RMK AO2 SLP263 T00721028
  • 160953Z AUTO 18005KT 10SM CLR 07/M03 A3038 RMK AO2 SLP260 T00721033
  • 160926Z AUTO 00000KT 4SM HZ CLR 06/M04 A3038 RMK AO2 T00561044
  • 160918Z AUTO 00000KT 2SM HZ CLR 05/M05 A3038 RMK AO2 VIS 3/4V5 T00501050
  • 160907Z AUTO 00000KT 3/4SM HZ CLR 05/M04 A3039 RMK AO2 T00501044

TAF KCNM
Valid from the 16 at 12:00 until the 17 at 12:00 UTC


161120Z 1612/1712 14008KT P6SM SKC
KZAB FIR / North America



MET'MAP, your aeronautical weather chart ! - Copyright ORBIFLY December 2007 - Disclaimer

ORBIFLY MET'MAP TEAM :

Programming & Development : Alexandra Zaïnal
Concept & original design : Baudouin d'Aumeries
Assistance for programming : Marc-Olivier Méhu
Technical & hardware support : Manuel Goepfert

Contact : metmap@orbifly.com




SOURCES & CREDITS :

   NOAA       Earth
Advisory